Weather at Black Mark Strip [CLOSED]

Public forecast

Using degrees Fahrenheit for public forecast. Weather courtesy of forecast.io.

Closest aviation weather report (METAR) to Black Mark Strip

Closest report is Dallas Fort Worth International Airport, 8.3 nm (15.4 km) S.

2024/05/28 14:53 (retrieved 7 minutes ago)

KDFW 281453Z 07012G21KT 8SM -TSRA FEW070 BKN100CB OVC120 19/17 A3024 RMK AO2 TSE24B30 SLP233 OCNL LTGIC NE-SE TS NE-SE MOV SE P0008 60068 T01940172 51065

Closest aviation forecast (TAF) to Black Mark Strip

Closest forecast is Dallas Fort Worth International Airport, 8.3 nm (15.4 km) S.

2024/05/28 13:04 Ammendment (retrieved 2 hours ago)

TAF AMD KDFW 281302Z 2813/2918 01015G30KT 5SM TSRA BR SCT025 OVC060CB TEMPO 2813/2815 01030G40KT 1SM +TSRA BKN025CB FM281500 11008KT P6SM -SHRA VCTS BKN025CB TEMPO 2815/2818 5SM -TSRA BR OVC015CB FM281800 12009KT P6SM VCSH BKN045 FM290200 09009KT P6SM VCTS OVC060CB FM290800 11007KT 6SM BR VCSH BKN020